Time;durP1;ratioP1;P1;durP2;ratioP2;P2;SDS_P1;SDS_P2;PMS_P1;PMS_P2;Temp;Humidity;BMP_temperature;BMP_pressure;BME280_temperature;BME280_humidity;BME280_pressure;Samples;Min_cycle;Max_cycle;Signal;HPM_P1;HPM_P2
2021/03/04 00:00:49;;;;;;;19.52;11.73;;;6.70;65.50;;;4.83;64.30;96715.91;4919863;28;20150;-64
2021/03/04 00:03:15;;;;;;;19.83;10.38;;;6.60;65.10;;;4.83;64.04;96712.47;4920537;29;20102;-64
2021/03/04 00:05:41;;;;;;;21.77;10.27;;;6.60;65.20;;;4.80;63.98;96707.53;4930738;29;20416;-64
2021/03/04 00:08:07;;;;;;;17.35;10.18;;;6.50;65.70;;;4.79;64.25;96706.72;4952157;28;20058;-63
2021/03/04 00:10:33;;;;;;;15.05;10.02;;;6.40;66.00;;;4.69;64.33;96685.03;4946705;28;20067;-63
2021/03/04 00:12:58;;;;;;;20.15;10.68;;;6.40;66.20;;;4.75;64.41;96696.69;4912813;29;20035;-63
2021/03/04 00:15:27;;;;;;;16.20;9.65;;;6.50;66.20;;;4.72;64.68;96676.94;4907622;29;20101;-63
2021/03/04 00:17:53;;;;;;;21.65;10.57;;;6.60;65.90;;;4.80;64.27;96697.94;4947074;28;20484;-63
2021/03/04 00:20:24;;;;;;;16.77;9.82;;;6.60;65.70;;;4.80;65.69;96692.72;4940738;28;20043;-63
2021/03/04 00:22:49;;;;;;;14.93;9.85;;;6.60;65.70;;;4.80;64.07;96690.13;4946190;29;20036;-63
2021/03/04 00:25:15;;;;;;;18.38;10.05;;;6.60;65.40;;;4.81;64.09;96683.13;4938290;28;20130;-63
2021/03/04 00:27:42;;;;;;;18.13;10.00;;;6.60;65.30;;;4.79;64.26;96680.66;4941096;28;20086;-64
2021/03/04 00:30:10;;;;;;;17.60;9.27;;;6.50;65.80;;;4.76;64.38;96680.94;4922638;28;20085;-64
2021/03/04 00:32:36;;;;;;;16.88;10.05;;;6.50;65.80;;;4.76;64.10;96680.94;4946242;29;20448;-64
2021/03/04 00:35:02;;;;;;;16.90;9.65;;;6.60;65.70;;;4.76;64.27;96675.72;4944336;29;20531;-64
2021/03/04 00:37:27;;;;;;;16.52;9.57;;;6.50;65.40;;;4.71;64.20;96677.91;4924528;29;20047;-63
2021/03/04 00:39:53;;;;;;;14.80;9.82;;;6.50;65.30;;;4.71;64.33;96672.69;4946194;29;20031;-63
2021/03/04 00:42:19;;;;;;;18.70;9.23;;;6.50;65.30;;;4.70;64.19;96671.06;4935938;29;20459;-64
2021/03/04 00:44:45;;;;;;;15.65;8.95;;;6.50;65.10;;;4.69;64.20;96668.59;4930355;29;20133;-64
2021/03/04 00:47:10;;;;;;;14.13;9.25;;;6.50;65.10;;;4.68;64.10;96665.16;4938691;28;20404;-63
2021/03/04 00:49:36;;;;;;;17.42;10.40;;;6.50;65.30;;;4.55;64.19;96651.59;4942552;28;20039;-63
2021/03/04 00:52:02;;;;;;;16.30;9.48;;;6.50;65.20;;;4.65;64.53;96668.03;4926551;29;20039;-64
2021/03/04 00:54:28;;;;;;;15.32;8.82;;;6.50;65.10;;;4.63;64.44;96653.50;4922606;29;20039;-64
2021/03/04 00:56:53;;;;;;;16.98;9.63;;;6.50;65.40;;;4.64;64.26;96661.19;4963995;23;20066;-69
2021/03/04 00:59:20;;;;;;;16.85;9.52;;;6.50;65.50;;;4.64;64.61;96661.19;4941723;28;20526;-70
2021/03/04 01:01:45;;;;;;;17.23;9.50;;;6.50;65.40;;;4.62;64.32;96647.47;4927251;28;20065;-70
2021/03/04 01:04:11;;;;;;;19.23;10.15;;;6.40;65.40;;;4.60;64.30;96646.78;4955439;28;20035;-70
2021/03/04 01:06:37;;;;;;;18.00;9.25;;;6.50;65.50;;;4.60;64.47;96641.59;4951377;28;20494;-70
2021/03/04 01:09:04;;;;;;;15.60;8.82;;;6.50;65.40;;;4.59;64.69;96632.94;4991810;28;20046;-70
2021/03/04 01:11:30;;;;;;;16.45;9.60;;;6.50;65.10;;;4.60;64.71;96636.38;4966262;28;20121;-70
2021/03/04 01:13:56;;;;;;;16.60;9.60;;;6.50;65.40;;;4.61;64.86;96640.63;4940679;28;20132;-70
2021/03/04 01:16:21;;;;;;;16.55;9.88;;;6.50;65.30;;;4.59;64.62;96629.53;4939902;28;20034;-70
2021/03/04 01:18:47;;;;;;;17.80;10.15;;;6.50;65.30;;;4.60;64.66;96631.16;4956019;28;20497;-70
2021/03/04 01:21:13;;;;;;;16.85;8.95;;;6.50;65.00;;;4.61;64.71;96635.41;4984010;28;20047;-70
2021/03/04 01:23:38;;;;;;;17.10;9.65;;;6.50;65.20;;;4.58;64.71;96626.09;4967957;28;20085;-70
2021/03/04 01:26:05;;;;;;;15.75;9.88;;;6.50;65.30;;;4.57;64.72;96626.25;4955445;28;20046;-70
2021/03/04 01:28:31;;;;;;;18.77;9.40;;;6.50;65.00;;;4.55;64.73;96615.13;4947254;28;20464;-71
2021/03/04 01:30:56;;;;;;;13.52;9.13;;;6.40;65.10;;;4.54;64.39;96600.47;4952495;28;20026;-70
2021/03/04 01:33:22;;;;;;;16.50;8.77;;;6.40;65.20;;;4.53;64.33;96606.63;4951177;28;20066;-70
2021/03/04 01:35:48;;;;;;;19.27;9.82;;;6.50;65.00;;;4.53;64.57;96611.84;4925437;28;20034;-71
2021/03/04 01:38:14;;;;;;;16.88;9.63;;;6.40;64.70;;;4.52;64.21;96610.19;4940635;28;20514;-69
2021/03/04 01:40:39;;;;;;;12.93;8.75;;;6.40;64.80;;;4.51;64.22;96600.72;4949887;28;20626;-70
2021/03/04 01:43:05;;;;;;;15.82;8.95;;;6.40;64.90;;;4.49;64.75;96600.03;4956196;28;20110;-70
2021/03/04 01:45:31;;;;;;;15.23;8.88;;;6.40;64.70;;;4.49;64.44;96597.44;4958935;28;20031;-70
2021/03/04 01:47:57;;;;;;;19.20;9.35;;;6.30;64.70;;;4.48;64.41;96586.19;4971965;28;20049;-70
2021/03/04 01:50:23;;;;;;;22.55;10.00;;;6.30;64.90;;;4.47;64.21;96586.34;4977882;28;20041;-70
2021/03/04 01:52:49;;;;;;;17.15;9.23;;;6.30;64.90;;;4.47;64.77;96591.53;4953287;28;20030;-70
2021/03/04 01:55:17;;;;;;;14.95;9.20;;;6.20;65.20;;;4.43;64.48;96579.75;4951119;28;20133;-70
2021/03/04 01:57:43;;;;;;;16.58;9.57;;;6.20;65.10;;;4.43;64.18;96574.56;4941516;28;20062;-70
2021/03/04 02:00:10;;;;;;;15.25;9.27;;;6.30;65.10;;;4.41;64.07;96576.47;4930293;28;20733;-70
2021/03/04 02:02:36;;;;;;;15.82;9.57;;;6.20;64.90;;;4.40;64.30;96569.63;4937308;28;20449;-70
2021/03/04 02:05:14;;;;;;;15.43;9.15;;;6.20;65.00;;;4.38;65.44;96572.38;4959202;28;20131;-71
2021/03/04 02:07:51;;;;;;;17.65;9.32;;;6.20;65.20;;;4.40;65.02;96567.03;4972780;28;20047;-70
2021/03/04 02:10:21;;;;;;;16.70;10.02;;;6.20;65.00;;;4.40;65.02;96567.03;4940648;28;20121;-71
2021/03/04 02:13:02;;;;;;;15.68;8.88;;;6.20;64.80;;;4.38;65.74;96556.75;5001941;28;20528;-71
2021/03/04 02:15:39;;;;;;;17.20;8.77;;;6.20;64.80;;;4.40;65.02;96554.00;4963152;28;20110;-70
2021/03/04 02:18:08;;;;;;;16.35;8.93;;;6.20;64.80;;;4.40;64.45;96552.22;4939400;28;20042;-71
2021/03/04 02:21:23;;;;;;;15.93;9.48;;;6.20;64.70;;;4.42;65.37;96544.25;4946410;28;20511;-71
2021/03/04 02:23:56;;;;;;;15.27;8.80;;;6.20;64.40;;;4.43;64.92;96553.72;4970064;28;20573;-71
2021/03/04 02:27:06;;;;;;;13.15;8.38;;;6.20;64.40;;;4.42;65.12;96541.66;4950922;28;20035;-71
2021/03/04 02:29:46;;;;;;;14.52;9.05;;;6.20;64.20;;;4.43;64.92;96538.09;4972041;28;20041;-71
2021/03/04 02:32:12;;;;;;;18.65;8.93;;;6.20;64.00;;;4.43;64.16;96543.28;4983801;28;20119;-71
2021/03/04 02:34:49;;;;;;;16.02;9.50;;;6.20;64.00;;;4.45;64.74;96533.56;4937984;28;20035;-71
2021/03/04 02:37:18;;;;;;;15.55;9.18;;;6.30;63.90;;;4.45;64.32;96536.16;4944226;28;20522;-71
2021/03/04 02:39:45;;;;;;;15.38;8.63;;;6.20;63.90;;;4.45;64.02;96543.97;4936048;28;20039;-71
2021/03/04 02:42:16;;;;;;;18.30;9.68;;;6.20;63.80;;;4.47;64.27;96549.88;4943921;28;20533;-71
2021/03/04 02:44:41;;;;;;;15.35;8.73;;;6.20;63.80;;;4.47;63.82;96545.47;4953925;28;20034;-71
2021/03/04 02:47:07;;;;;;;15.48;8.43;;;6.30;63.90;;;4.50;63.57;96544.38;4953723;28;20699;-71
2021/03/04 02:49:33;;;;;;;13.73;8.38;;;6.20;63.80;;;4.50;63.58;96539.97;4970137;28;20031;-71
2021/03/04 02:51:59;;;;;;;14.75;8.95;;;6.20;63.80;;;4.50;63.76;96541.75;4961128;28;20045;-71
2021/03/04 02:54:25;;;;;;;18.85;9.10;;;6.20;63.50;;;4.48;63.91;96541.91;4923793;28;20410;-71
2021/03/04 02:56:50;;;;;;;15.65;9.10;;;6.20;63.50;;;4.51;64.01;96540.81;4938112;28;20038;-71
2021/03/04 02:59:16;;;;;;;15.38;8.70;;;6.30;63.90;;;4.49;63.45;96540.13;4955479;28;20050;-71
2021/03/04 03:01:43;;;;;;;18.92;9.02;;;6.20;63.70;;;4.53;63.65;96533.69;4947353;28;20081;-71
2021/03/04 03:04:08;;;;;;;13.65;8.75;;;6.40;63.60;;;4.55;63.64;96537.81;4942337;28;20045;-71
2021/03/04 03:06:34;;;;;;;16.63;8.70;;;6.40;63.20;;;4.56;63.50;96528.19;4946390;28;20454;-71
2021/03/04 03:09:01;;;;;;;14.38;8.30;;;6.40;63.20;;;4.58;63.72;96527.09;4971369;28;20033;-71
2021/03/04 03:11:27;;;;;;;16.92;8.85;;;6.40;63.30;;;4.57;63.37;96529.84;4967233;28;20038;-71
2021/03/04 03:13:53;;;;;;;12.48;8.10;;;6.40;63.00;;;4.60;63.62;96529.56;4977285;28;20134;-71
2021/03/04 03:16:19;;;;;;;17.23;8.98;;;6.50;62.80;;;4.61;63.68;96532.03;4974429;28;20038;-71
2021/03/04 03:18:45;;;;;;;14.18;8.68;;;6.50;62.60;;;4.61;63.48;96537.22;4940628;28;20493;-71
2021/03/04 03:21:11;;;;;;;13.48;8.20;;;6.50;62.60;;;4.63;63.25;96525.84;4951026;28;20062;-71
2021/03/04 03:23:37;;;;;;;40.80;23.27;;;6.50;62.40;;;4.64;63.45;96525.69;4935113;28;20109;-71
2021/03/04 03:26:03;;;;;;;34.60;20.80;;;6.60;62.40;;;4.66;63.29;96528.16;4963513;28;20134;-71
2021/03/04 03:28:28;;;;;;;22.02;13.10;;;6.60;62.40;;;4.67;63.29;96527.19;4952444;28;20038;-71
2021/03/04 03:30:54;;;;;;;20.77;12.85;;;6.60;62.70;;;4.69;63.80;96531.31;4958724;28;20089;-71
2021/03/04 03:33:20;;;;;;;26.45;15.57;;;6.70;63.20;;;4.71;63.62;96537.19;4965067;28;20027;-71
2021/03/04 03:35:46;;;;;;;25.38;15.23;;;6.80;63.00;;;4.74;63.73;96525.66;4934429;28;20093;-71
2021/03/04 03:38:12;;;;;;;14.38;9.55;;;6.70;63.10;;;4.74;63.38;96534.28;4954311;28;20034;-70
2021/03/04 03:40:39;;;;;;;13.43;8.73;;;6.70;61.90;;;4.74;63.38;96526.47;4938113;28;20049;-70
2021/03/04 03:43:08;;;;;;;16.98;8.73;;;6.60;61.70;;;4.74;63.64;96531.69;4953246;28;20533;-72
2021/03/04 03:45:36;;;;;;;17.95;8.98;;;6.70;61.90;;;4.75;63.39;96538.56;4969542;28;20038;-71
2021/03/04 03:48:03;;;;;;;14.52;8.55;;;6.70;61.90;;;4.75;63.14;96522.94;4968533;28;20058;-71
2021/03/04 03:50:29;;;;;;;12.73;8.10;;;6.70;61.80;;;4.76;63.10;96524.59;4975495;28;20042;-70
2021/03/04 03:52:55;;;;;;;17.38;9.00;;;6.70;61.80;;;4.75;63.39;96522.94;4947173;28;20133;-71
2021/03/04 03:55:20;;;;;;;17.85;8.80;;;6.70;61.80;;;4.76;62.95;96519.38;4958842;28;20227;-70
2021/03/04 03:57:47;;;;;;;18.05;8.73;;;6.60;62.00;;;4.77;63.30;96522.78;4916229;28;20039;-71
2021/03/04 04:00:14;;;;;;;14.02;8.57;;;6.70;61.90;;;4.77;63.17;96521.00;4961456;28;20042;-71
2021/03/04 04:02:39;;;;;;;13.13;9.00;;;6.70;62.00;;;4.78;63.45;96527.03;4974807;28;20038;-70
2021/03/04 04:05:06;;;;;;;14.50;8.40;;;6.70;62.00;;;4.77;63.10;96521.00;4937008;28;20038;-71
2021/03/04 04:07:32;;;;;;;23.85;8.35;;;6.70;62.30;;;4.76;63.45;96514.16;4936315;28;20387;-71
2021/03/04 04:09:58;;;;;;;13.75;8.38;;;6.80;62.30;;;4.77;63.27;96521.00;4968782;28;20045;-71
2021/03/04 04:12:24;;;;;;;22.67;13.77;;;6.80;62.10;;;4.80;63.52;96514.69;4949857;28;20042;-71
2021/03/04 04:14:51;;;;;;;29.77;17.25;;;6.80;62.30;;;4.82;63.57;96516.19;4948640;28;20134;-72
2021/03/04 04:17:20;;;;;;;20.27;13.07;;;6.90;62.10;;;4.84;63.09;96516.03;4953002;28;20415;-72
2021/03/04 04:19:46;;;;;;;21.00;12.95;;;6.90;61.50;;;4.85;63.23;96513.28;4949604;28;20456;-72
2021/03/04 04:22:12;;;;;;;18.65;10.10;;;6.90;61.00;;;4.84;63.38;96501.22;4951515;28;20052;-71
2021/03/04 04:24:37;;;;;;;14.90;8.95;;;6.90;61.40;;;4.86;63.40;96506.28;4968578;28;20034;-71
2021/03/04 04:27:04;;;;;;;15.40;7.82;;;6.90;61.50;;;4.86;62.92;96509.72;4966704;28;20501;-71
2021/03/04 04:29:30;;;;;;;16.30;8.10;;;6.90;60.40;;;4.87;62.94;96505.31;4967005;28;20097;-71
2021/03/04 04:31:56;;;;;;;14.82;8.35;;;6.90;60.10;;;4.85;62.65;96504.66;4968534;28;20034;-71
2021/03/04 04:34:22;;;;;;;13.07;8.05;;;6.80;59.50;;;4.81;62.88;96498.91;4953049;28;20031;-71
2021/03/04 04:36:48;;;;;;;11.93;7.40;;;6.80;59.50;;;4.82;62.48;96497.13;4917446;28;20027;-71
2021/03/04 04:39:13;;;;;;;14.85;8.20;;;6.70;59.30;;;4.81;62.05;96491.09;4953973;28;20478;-71
2021/03/04 04:41:39;;;;;;;13.27;7.93;;;6.70;59.40;;;4.81;62.28;96485.88;4951071;28;20631;-70
2021/03/04 04:44:05;;;;;;;20.65;8.32;;;6.70;60.00;;;4.82;62.31;96487.50;4963681;28;20508;-69
2021/03/04 04:46:31;;;;;;;14.10;8.40;;;6.80;59.80;;;4.83;61.88;96493.53;4952692;28;20039;-70
2021/03/04 04:48:57;;;;;;;16.83;7.90;;;6.70;59.50;;;4.80;61.86;96479.03;4965677;28;20079;-70
2021/03/04 04:51:22;;;;;;;14.02;7.95;;;6.60;59.90;;;4.81;61.72;96485.06;4970475;28;20537;-68
2021/03/04 04:53:48;;;;;;;11.70;7.38;;;6.70;60.00;;;4.78;62.02;96483.56;4971577;28;20108;-69
2021/03/04 04:56:14;;;;;;;11.52;7.50;;;6.60;60.00;;;4.74;61.89;96484.78;4950213;28;20035;-68
2021/03/04 04:58:40;;;;;;;15.60;7.88;;;6.50;60.30;;;4.70;61.91;96478.22;4939381;28;20070;-68
2021/03/04 05:01:05;;;;;;;13.32;7.82;;;6.50;60.00;;;4.71;61.73;96479.88;4968684;28;20073;-69
2021/03/04 05:03:31;;;;;;;12.55;7.97;;;6.60;60.00;;;4.72;61.79;96478.91;4953229;28;20034;-70
2021/03/04 05:05:57;;;;;;;21.45;11.57;;;6.60;59.80;;;4.72;61.81;96471.06;4945582;28;20053;-71
2021/03/04 05:08:22;;;;;;;20.73;11.48;;;6.60;59.60;;;4.73;61.88;96467.50;4971129;28;20652;-72
2021/03/04 05:10:48;;;;;;;13.15;7.65;;;6.60;59.60;;;4.69;61.97;96481.78;4960770;28;20183;-70
2021/03/04 05:13:14;;;;;;;15.18;7.50;;;6.50;59.80;;;4.67;61.78;96475.91;4921287;28;20648;-71
2021/03/04 05:15:40;;;;;;;13.43;7.55;;;6.50;60.30;;;4.66;61.96;96474.25;4967600;28;20169;-70
2021/03/04 05:18:06;;;;;;;13.70;7.13;;;6.50;60.30;;;4.63;61.85;96471.94;4971179;28;20100;-71
2021/03/04 05:20:31;;;;;;;14.23;7.10;;;6.40;60.30;;;4.60;61.36;96464.44;4933868;29;20031;-70
2021/03/04 05:22:57;;;;;;;17.80;10.32;;;6.40;60.50;;;4.62;61.92;96462.50;4938699;28;20055;-70
2021/03/04 05:25:23;;;;;;;14.27;7.80;;;6.50;60.50;;;4.62;61.61;96465.09;4954859;28;20070;-70
2021/03/04 05:27:49;;;;;;;12.48;6.38;;;6.50;60.30;;;4.62;61.37;96454.69;4971251;28;20073;-70
2021/03/04 05:30:15;;;;;;;12.82;6.85;;;6.60;60.10;;;4.64;62.11;96457.13;4960115;28;20045;-71
2021/03/04 05:32:41;;;;;;;12.90;7.60;;;6.60;60.30;;;4.64;62.02;96450.13;4952859;28;20038;-70
2021/03/04 05:35:07;;;;;;;10.85;6.70;;;6.60;60.00;;;4.65;61.71;96459.59;4968297;28;20108;-71
2021/03/04 05:37:33;;;;;;;10.30;6.55;;;6.60;59.80;;;4.67;61.53;96473.28;4923514;28;20034;-71
2021/03/04 05:39:58;;;;;;;12.15;7.20;;;6.50;59.80;;;4.66;61.43;96456.03;4938836;28;20041;-72
2021/03/04 05:42:24;;;;;;;15.10;8.15;;;6.60;59.90;;;4.68;61.51;96448.88;4971089;28;20057;-71
2021/03/04 05:44:50;;;;;;;12.60;7.60;;;6.60;59.70;;;4.68;61.86;96443.69;4957430;28;20117;-70
2021/03/04 05:47:16;;;;;;;13.77;7.72;;;6.60;59.80;;;4.68;61.70;96443.69;4936129;28;20101;-70
2021/03/04 05:50:03;;;;;;;16.50;7.60;;;6.60;59.70;;;4.68;62.15;96448.88;4983475;28;20030;-70
2021/03/04 05:52:28;;;;;;;14.10;7.38;;;6.60;59.90;;;4.66;61.61;96445.59;4951126;28;20035;-71
2021/03/04 05:54:54;;;;;;;11.98;6.32;;;6.60;60.20;;;4.67;61.85;96443.81;4972981;28;20038;-70
2021/03/04 05:57:20;;;;;;;14.25;6.95;;;6.50;59.80;;;4.68;61.96;96437.66;4939143;28;20034;-70
2021/03/04 05:59:46;;;;;;;13.93;7.05;;;6.60;59.60;;;4.68;61.54;96441.06;4953516;28;20145;-71
2021/03/04 06:02:12;;;;;;;12.40;6.93;;;6.60;59.50;;;4.64;61.62;96437.13;4953193;28;20469;-71
2021/03/04 06:04:37;;;;;;;13.73;7.35;;;6.50;59.80;;;4.65;61.46;96432.72;4947163;28;20536;-69
2021/03/04 06:07:03;;;;;;;17.40;7.43;;;6.50;59.80;;;4.66;61.24;96444.78;4970276;28;20058;-70
2021/03/04 06:09:30;;;;;;;15.90;7.28;;;6.60;59.90;;;4.66;61.33;96440.41;4970701;28;20041;-69
2021/03/04 06:12:03;;;;;;;12.10;6.78;;;6.60;60.00;;;4.67;61.96;96436.00;4963629;28;20034;-69
2021/03/04 06:14:29;;;;;;;11.55;6.28;;;6.60;59.70;;;4.69;61.38;96445.31;4946861;28;20571;-68
2021/03/04 06:16:55;;;;;;;12.20;6.88;;;6.60;59.80;;;4.71;61.82;96448.59;4968799;28;20038;-69
2021/03/04 06:19:21;;;;;;;15.40;6.30;;;6.70;59.80;;;4.73;61.55;96436.22;4921296;28;20038;-70
2021/03/04 06:21:58;;;;;;;10.85;6.28;;;6.70;59.30;;;4.74;61.33;96437.88;4947848;28;20066;-71
2021/03/04 06:24:24;;;;;;;11.57;6.22;;;6.70;59.00;;;4.77;61.59;96442.00;4940272;28;20497;-70
2021/03/04 06:26:54;;;;;;;12.93;5.80;;;6.60;59.20;;;4.77;61.30;96432.41;4946840;28;20039;-73
2021/03/04 06:29:21;;;;;;;15.43;7.22;;;6.60;59.20;;;4.78;61.10;96439.25;4963589;28;20061;-71
2021/03/04 06:32:04;;;;;;;11.40;6.32;;;6.60;59.60;;;4.81;61.59;96438.97;4977720;28;20034;-68
2021/03/04 06:34:30;;;;;;;12.35;6.75;;;6.60;59.30;;;4.84;61.41;96435.25;4982447;28;20147;-68
2021/03/04 06:37:06;;;;;;;13.98;6.88;;;6.70;59.40;;;4.86;61.65;96436.72;4974107;28;20034;-68
2021/03/04 06:39:45;;;;;;;14.88;7.22;;;6.80;59.70;;;4.88;61.26;96432.19;4943451;28;20754;-68
2021/03/04 06:42:13;;;;;;;15.88;6.95;;;6.80;58.80;;;4.89;61.31;96419.97;4954959;28;20026;-68
2021/03/04 06:44:42;;;;;;;12.02;6.38;;;6.80;58.60;;;4.93;60.87;96416.94;4947245;28;20551;-68
2021/03/04 06:47:09;;;;;;;14.00;6.43;;;7.00;58.30;;;4.98;60.76;96436.53;4949011;28;20053;-68
2021/03/04 06:49:39;;;;;;;10.85;6.32;;;7.00;57.80;;;5.00;60.75;96425.00;4975220;28;20227;-67
2021/03/04 06:52:06;;;;;;;13.15;6.30;;;7.00;58.20;;;5.04;60.59;96428.13;4962780;28;20047;-70
2021/03/04 06:54:32;;;;;;;14.30;6.80;;;7.10;58.30;;;5.09;61.28;96431.94;4962392;28;20085;-67
2021/03/04 06:57:11;;;;;;;10.95;6.03;;;7.10;58.10;;;5.13;60.92;96432.47;4952778;28;20066;-68
2021/03/04 06:59:44;;;;;;;18.13;9.25;;;7.10;57.70;;;5.19;61.18;96424.03;4953535;28;20046;-68
2021/03/04 07:02:11;;;;;;;20.85;10.95;;;7.30;57.90;;;5.26;61.02;96426.91;4969685;28;20121;-69
2021/03/04 07:04:37;;;;;;;13.27;8.10;;;7.30;58.50;;;5.30;60.98;96420.41;4951991;28;20113;-68
2021/03/04 07:07:04;;;;;;;19.52;11.57;;;7.40;57.50;;;5.37;60.71;96424.88;4950494;28;20130;-66
2021/03/04 07:09:33;;;;;;;13.23;6.93;;;7.50;57.70;;;5.40;59.78;96424.59;4975432;28;20064;-67
2021/03/04 07:11:58;;;;;;;12.25;6.30;;;7.40;56.00;;;5.42;60.51;96432.25;4944815;28;20133;-70
2021/03/04 07:14:24;;;;;;;13.13;6.82;;;7.30;56.30;;;5.43;60.00;96429.53;4943854;28;20679;-68
2021/03/04 07:16:50;;;;;;;11.15;6.20;;;7.30;56.10;;;5.44;60.36;96425.94;4985489;28;20057;-68
2021/03/04 07:19:16;;;;;;;11.98;6.18;;;7.30;56.20;;;5.47;59.83;96428.25;4928266;28;20133;-68
2021/03/04 07:21:47;;;;;;;12.63;6.32;;;7.40;56.00;;;5.48;59.01;96427.28;4922003;28;20501;-68
2021/03/04 07:24:13;;;;;;;11.93;5.93;;;7.40;55.80;;;5.52;59.40;96426.00;4953091;28;20038;-68
2021/03/04 07:26:39;;;;;;;12.80;5.88;;;7.50;55.30;;;5.56;59.48;96417.88;4937817;28;20473;-66
2021/03/04 07:29:07;;;;;;;10.18;6.20;;;7.60;55.00;;;5.62;59.34;96417.28;4925174;28;20034;-68
2021/03/04 07:31:32;;;;;;;10.85;5.93;;;7.60;54.40;;;5.65;59.02;96409.97;4933852;28;20049;-70
2021/03/04 07:33:59;;;;;;;10.30;5.80;;;7.60;54.00;;;5.71;58.89;96421.59;4934827;28;20556;-69
2021/03/04 07:36:24;;;;;;;10.93;5.35;;;7.60;53.30;;;5.73;58.42;96411.84;4952640;28;20030;-68
2021/03/04 07:38:57;;;;;;;12.18;5.45;;;7.70;53.40;;;5.79;57.47;96409.44;4947368;28;20049;-68
2021/03/04 07:41:34;;;;;;;8.60;4.95;;;7.80;52.70;;;5.85;56.77;96403.59;4969286;28;20050;-69
2021/03/04 07:44:00;;;;;;;9.77;4.95;;;7.90;52.30;;;5.91;57.82;96397.00;4964220;28;20038;-69
2021/03/04 07:46:30;;;;;;;8.85;4.97;;;8.00;52.10;;;5.98;57.07;96399.81;4934356;28;20046;-68
2021/03/04 07:48:56;;;;;;;9.73;4.78;;;8.00;51.50;;;6.03;57.25;96390.53;4963159;28;20045;-67
2021/03/04 07:51:22;;;;;;;11.57;5.28;;;8.10;50.90;;;6.11;57.29;96406.28;4952984;28;20070;-68
2021/03/04 07:53:48;;;;;;;14.10;7.60;;;8.10;50.90;;;6.14;56.44;96386.88;4969084;28;20466;-67
2021/03/04 07:56:29;;;;;;;15.15;8.68;;;8.10;50.80;;;6.22;55.40;96391.31;4949765;28;20122;-66
2021/03/04 07:59:06;;;;;;;15.60;8.32;;;8.30;50.30;;;6.28;56.95;96388.06;4958037;28;20465;-69
2021/03/04 08:01:32;;;;;;;15.15;6.60;;;8.30;50.40;;;6.34;56.00;96384.84;4968196;28;20038;-70
2021/03/04 08:03:57;;;;;;;17.20;6.25;;;8.40;49.90;;;6.42;55.96;96384.88;4968869;28;22312;-70
2021/03/04 08:06:23;;;;;;;11.32;5.65;;;8.50;49.50;;;6.49;56.16;96385.06;4937246;28;20537;-69
2021/03/04 08:08:49;;;;;;;11.32;4.38;;;8.60;49.30;;;6.57;56.20;96382.50;4960490;28;20429;-69
2021/03/04 08:11:30;;;;;;;9.75;5.40;;;8.60;49.10;;;6.62;54.06;96383.69;4971174;28;20125;-69
2021/03/04 08:13:56;;;;;;;9.10;4.55;;;8.70;49.00;;;6.69;55.42;96376.84;4920708;28;20496;-67
2021/03/04 08:16:22;;;;;;;10.50;5.22;;;8.80;48.80;;;6.76;55.77;96369.16;4955150;28;20494;-68
2021/03/04 08:18:58;;;;;;;11.95;5.53;;;8.90;48.60;;;6.83;53.76;96364.97;4966257;28;20033;-68
2021/03/04 08:21:24;;;;;;;10.77;5.22;;;9.00;48.30;;;6.90;54.70;96367.75;4961848;28;20057;-71
2021/03/04 08:23:51;;;;;;;16.40;8.63;;;9.10;48.10;;;7.01;55.33;96367.44;4952234;28;20406;-70
2021/03/04 08:26:27;;;;;;;12.57;7.15;;;9.20;49.10;;;7.12;54.01;96361.91;4955432;28;20152;-66
2021/03/04 08:29:05;;;;;;;9.70;5.10;;;9.40;47.60;;;7.17;52.80;96357.00;4933383;28;20526;-66
2021/03/04 08:31:32;;;;;;;9.73;5.15;;;9.40;47.20;;;7.24;54.65;96355.41;4966581;28;20046;-67
2021/03/04 08:33:58;;;;;;;10.25;4.90;;;9.50;47.10;;;7.27;54.21;96356.88;4935997;28;20118;-67
2021/03/04 08:36:24;;;;;;;16.27;5.82;;;9.40;47.00;;;7.31;54.54;96359.00;4964485;28;20643;-68
2021/03/04 08:38:50;;;;;;;12.18;4.82;;;9.40;47.10;;;7.38;54.41;96365.22;4958559;28;20126;-70
2021/03/04 08:41:22;;;;;;;9.45;5.03;;;9.50;48.10;;;7.45;53.23;96357.53;4949428;28;20058;-68
2021/03/04 08:43:48;;;;;;;18.67;5.10;;;9.60;47.20;;;7.50;54.25;96360.50;4958452;28;20146;-70
2021/03/04 08:46:14;;;;;;;8.10;4.78;;;9.60;47.40;;;7.55;53.59;96347.72;4963561;28;20129;-68
2021/03/04 08:48:46;;;;;;;10.23;5.05;;;9.70;47.20;;;7.62;52.66;96355.72;4944609;28;20073;-69
2021/03/04 08:51:12;;;;;;;10.10;5.00;;;9.80;47.20;;;7.71;53.44;96349.53;4933019;28;20494;-68
2021/03/04 08:53:38;;;;;;;9.95;5.20;;;9.90;47.60;;;7.79;53.90;96346.91;4950229;28;20046;-67
2021/03/04 08:56:06;;;;;;;11.38;4.82;;;10.10;47.70;;;7.90;53.85;96346.53;4952312;28;20116;-67
2021/03/04 08:58:38;;;;;;;12.40;5.38;;;10.20;47.20;;;8.03;53.32;96355.69;4933716;28;20039;-69
2021/03/04 09:01:05;;;;;;;11.07;5.63;;;10.30;47.10;;;8.14;53.96;96347.47;4968572;28;20495;-68
2021/03/04 09:03:42;;;;;;;11.35;5.05;;;10.50;46.50;;;8.27;51.91;96342.53;4966296;28;20038;-68
2021/03/04 09:06:15;;;;;;;14.23;5.57;;;10.60;45.60;;;8.38;51.96;96334.34;4950526;28;20026;-69
2021/03/04 09:08:45;;;;;;;13.88;5.53;;;10.70;45.30;;;8.49;52.50;96328.72;4951119;28;20027;-69
2021/03/04 09:11:26;;;;;;;16.83;5.90;;;10.80;45.60;;;8.62;51.10;96330.00;4967403;28;20433;-68
2021/03/04 09:13:59;;;;;;;;;;;11.00;44.80;;;8.73;51.11;96329.59;4948926;28;20142;-65
2021/03/04 09:16:24;;;;;;;14.57;5.18;;;11.10;45.20;;;8.78;52.50;96319.41;4949544;28;19918;-65
2021/03/04 09:18:50;;;;;;;11.18;5.53;;;11.00;44.20;;;8.84;52.21;96319.56;4936565;28;20247;-68
2021/03/04 09:21:17;;;;;;;12.90;6.15;;;11.00;44.30;;;8.92;52.02;96321.31;4961287;28;20061;-67
2021/03/04 09:23:43;;;;;;;14.57;5.97;;;11.10;44.40;;;9.01;52.07;96315.00;4936343;28;20034;-67
2021/03/04 09:26:09;;;;;;;10.30;5.50;;;11.30;44.20;;;9.10;51.45;96303.50;4946968;28;20060;-67
2021/03/04 09:28:37;;;;;;;11.48;5.55;;;11.40;44.00;;;9.21;50.65;96302.25;4954981;28;20057;-66
2021/03/04 09:31:13;;;;;;;17.25;5.32;;;11.50;43.20;;;9.30;49.36;96298.59;4951393;28;20852;-67
2021/03/04 09:33:40;;;;;;;15.85;6.50;;;11.60;43.00;;;9.39;50.67;96305.41;4948809;28;20498;-68
2021/03/04 09:36:07;;;;;;;15.75;6.78;;;11.70;42.60;;;9.50;50.63;96298.91;4970492;28;20034;-70
2021/03/04 09:38:35;;;;;;;21.27;7.30;;;11.80;42.60;;;9.61;50.07;96290.59;4940393;28;20030;-68
2021/03/04 09:41:16;;;;;;;15.85;6.57;;;12.10;43.00;;;9.72;48.80;96290.16;4940529;28;20026;-67
2021/03/04 09:43:55;;;;;;;12.20;6.53;;;12.10;42.10;;;9.78;49.40;96284.22;4956109;28;20035;-68
2021/03/04 09:46:32;;;;;;;14.15;6.85;;;12.00;41.60;;;9.88;48.25;96280.50;4964224;28;20046;-69
2021/03/04 09:49:13;;;;;;;17.35;8.05;;;12.20;41.90;;;10.00;48.44;96289.59;4976988;28;20036;-68
2021/03/04 09:51:40;;;;;;;13.45;7.03;;;12.40;41.60;;;10.11;49.44;96281.25;4929747;28;20573;-66
2021/03/04 09:54:07;;;;;;;14.65;7.38;;;12.50;41.00;;;10.23;50.00;96273.75;4924126;28;20049;-67
2021/03/04 09:56:33;;;;;;;13.27;6.97;;;12.60;41.10;;;10.35;49.92;96275.72;4940172;28;20298;-70
2021/03/04 09:58:58;;;;;;;14.95;7.80;;;12.80;41.20;;;10.52;49.67;96272.91;4956115;28;20037;-69
2021/03/04 10:01:33;;;;;;;15.02;8.50;;;13.00;41.30;;;10.63;47.83;96264.53;4965800;28;20509;-69
2021/03/04 10:04:06;;;;;;;13.57;7.38;;;13.10;40.10;;;10.76;47.57;96262.06;4945244;28;20042;-66
2021/03/04 10:06:37;;;;;;;16.30;8.48;;;13.10;40.80;;;10.86;47.24;96253.84;4941721;28;20030;-67
2021/03/04 10:09:04;;;;;;;17.92;8.35;;;13.10;40.20;;;10.94;48.38;96249.28;4974748;28;20030;-68
2021/03/04 10:11:32;;;;;;;16.63;8.70;;;13.30;40.00;;;11.01;48.33;96252.78;4976397;28;20506;-71
2021/03/04 10:14:10;;;;;;;26.95;14.50;;;13.20;40.00;;;11.08;46.53;96244.13;4951418;28;20062;-68
2021/03/04 10:16:36;;;;;;;24.67;13.77;;;13.40;40.10;;;11.13;47.92;96249.69;4944705;28;20739;-70
2021/03/04 10:19:02;;;;;;;12.45;7.82;;;13.40;40.20;;;11.22;47.76;96243.28;4963395;28;20038;-70
2021/03/04 10:21:28;;;;;;;17.02;8.45;;;13.60;39.70;;;11.34;48.46;96233.88;4952221;28;20031;-69
2021/03/04 10:23:53;;;;;;;17.02;8.20;;;14.30;38.40;;;11.62;48.28;96239.97;4952199;28;20590;-67
2021/03/04 10:26:19;;;;;;;15.13;7.90;;;15.10;36.80;;;11.98;48.69;96232.91;4988783;28;20030;-67
2021/03/04 10:28:45;;;;;;;19.27;8.82;;;15.60;35.50;;;12.42;47.64;96235.16;4988894;28;20111;-67